createdAt,value
2018-09-11T00:00:26.609Z,65.18
2018-09-11T00:00:58.190Z,65.17
2018-09-11T00:01:29.775Z,65.21
2018-09-11T00:02:01.369Z,65.17
2018-09-11T00:02:32.955Z,65.09
2018-09-11T00:03:04.539Z,64.95
2018-09-11T00:03:36.181Z,64.90
2018-09-11T00:04:07.768Z,64.98
2018-09-11T00:04:39.360Z,64.88
2018-09-11T00:05:10.951Z,64.91
2018-09-11T00:05:42.557Z,64.85
2018-09-11T00:06:14.143Z,64.86
2018-09-11T00:06:45.737Z,64.72
2018-09-11T00:07:17.333Z,64.63
2018-09-11T00:07:48.942Z,64.71
2018-09-11T00:08:20.532Z,64.61
2018-09-11T00:08:52.155Z,64.53
2018-09-11T00:09:23.741Z,64.56
2018-09-11T00:09:55.379Z,64.41
2018-09-11T00:10:26.978Z,64.46
2018-09-11T00:10:58.567Z,64.37
2018-09-11T00:11:30.161Z,64.26
2018-09-11T00:12:01.751Z,64.46
2018-09-11T00:12:33.336Z,64.36
2018-09-11T00:13:04.939Z,64.27
2018-09-11T00:13:36.531Z,64.27
2018-09-11T00:14:08.118Z,64.28
2018-09-11T00:14:39.693Z,64.19
2018-09-11T00:15:11.319Z,64.22
2018-09-11T00:15:42.893Z,64.21
2018-09-11T00:16:14.480Z,64.36
2018-09-11T00:16:46.073Z,64.27
2018-09-11T00:17:17.674Z,64.42
2018-09-11T00:17:49.255Z,64.33
2018-09-11T00:18:20.840Z,64.34
2018-09-11T00:18:52.418Z,64.29
2018-09-11T00:19:24.002Z,64.29
2018-09-11T00:19:55.582Z,64.29
2018-09-11T00:20:27.223Z,64.32
2018-09-11T00:20:58.818Z,64.33
2018-09-11T00:21:30.399Z,64.32
2018-09-11T00:22:01.976Z,64.33
2018-09-11T00:22:33.563Z,64.25
2018-09-11T00:23:05.152Z,64.16
2018-09-11T00:23:36.730Z,64.22
2018-09-11T00:24:08.315Z,64.06
2018-09-11T00:24:39.895Z,64.20
2018-09-11T00:25:11.470Z,64.11
2018-09-11T00:25:43.091Z,64.06
2018-09-11T00:26:14.676Z,64.08
2018-09-11T00:26:46.264Z,64.02
2018-09-11T00:27:17.861Z,64.05
2018-09-11T00:27:49.447Z,64.00
2018-09-11T00:28:21.078Z,64.03
2018-09-11T00:28:52.664Z,64.04
2018-09-11T00:29:24.247Z,64.02
2018-09-11T00:29:55.839Z,63.95
2018-09-11T00:30:27.423Z,63.93
2018-09-11T00:30:59.007Z,63.94
2018-09-11T00:31:30.601Z,63.90
2018-09-11T00:32:02.197Z,63.87
2018-09-11T00:32:33.777Z,63.90
2018-09-11T00:33:05.369Z,63.86
2018-09-11T00:33:37.010Z,63.84
2018-09-11T00:34:08.581Z,63.89
2018-09-11T00:34:40.182Z,63.76
2018-09-11T00:35:11.774Z,63.88
2018-09-11T00:35:43.421Z,63.95
2018-09-11T00:36:15.018Z,63.74
2018-09-11T00:36:46.631Z,63.71
2018-09-11T00:37:18.219Z,63.80
2018-09-11T00:37:49.821Z,63.69
2018-09-11T00:38:21.424Z,63.64
2018-09-11T00:38:52.994Z,63.63
2018-09-11T00:39:24.583Z,63.66
2018-09-11T00:39:56.187Z,63.59
2018-09-11T00:40:27.789Z,63.55
2018-09-11T00:40:59.418Z,63.55
2018-09-11T00:41:31.004Z,63.59
2018-09-11T00:42:02.645Z,63.54
2018-09-11T00:42:34.240Z,63.58
2018-09-11T00:43:05.814Z,63.51
2018-09-11T00:43:37.399Z,63.52
2018-09-11T00:44:08.984Z,63.59
2018-09-11T00:44:40.571Z,63.56
2018-09-11T00:45:12.177Z,63.46
2018-09-11T00:45:43.803Z,63.52
2018-09-11T00:46:15.387Z,63.47
2018-09-11T00:46:46.981Z,63.50
2018-09-11T00:47:18.577Z,63.49
2018-09-11T00:47:50.163Z,63.41
2018-09-11T00:48:21.748Z,63.45
2018-09-11T00:48:53.341Z,63.48
2018-09-11T00:49:24.914Z,63.43
2018-09-11T00:49:56.513Z,63.45
2018-09-11T00:50:28.149Z,63.53
2018-09-11T00:50:59.736Z,63.38
2018-09-11T00:51:31.323Z,63.40
2018-09-11T00:52:02.913Z,63.35
2018-09-11T00:52:34.503Z,63.36
2018-09-11T00:53:06.145Z,63.35
2018-09-11T00:53:37.731Z,63.38
2018-09-11T00:54:09.331Z,63.37
2018-09-11T00:54:40.930Z,63.38
2018-09-11T00:55:12.510Z,63.33
2018-09-11T00:55:44.105Z,63.36
2018-09-11T00:56:15.701Z,63.35
2018-09-11T00:56:47.301Z,63.32
2018-09-11T00:57:18.897Z,63.32
2018-09-11T00:57:50.537Z,63.25
2018-09-11T00:58:22.164Z,63.34
2018-09-11T00:58:53.751Z,63.24
2018-09-11T00:59:25.355Z,63.45
2018-09-11T00:59:56.948Z,62.45
2018-09-11T01:00:28.575Z,63.23
2018-09-11T01:01:00.164Z,63.44
2018-09-11T01:01:31.761Z,63.59
2018-09-11T01:02:03.362Z,63.61
2018-09-11T01:02:34.966Z,63.72
2018-09-11T01:03:06.562Z,63.81
2018-09-11T01:03:38.155Z,63.85
2018-09-11T01:04:09.739Z,63.82
2018-09-11T01:04:41.333Z,63.83
2018-09-11T01:05:12.968Z,63.91
2018-09-11T01:05:44.569Z,63.94
2018-09-11T01:06:16.155Z,64.11
2018-09-11T01:06:47.739Z,64.04
2018-09-11T01:07:19.324Z,63.99
2018-09-11T01:07:50.901Z,63.96
2018-09-11T01:08:22.483Z,63.92
2018-09-11T01:08:54.097Z,63.94
2018-09-11T01:09:25.698Z,63.98
2018-09-11T01:09:57.284Z,64.00
2018-09-11T01:10:28.867Z,63.94
2018-09-11T01:11:00.441Z,63.81
2018-09-11T01:11:32.037Z,63.94
2018-09-11T01:12:03.635Z,64.01
2018-09-11T01:12:35.229Z,64.06
2018-09-11T01:13:06.811Z,64.06
2018-09-11T01:13:38.410Z,64.31
2018-09-11T01:14:10.058Z,64.30
2018-09-11T01:14:41.657Z,64.18
2018-09-11T01:15:13.980Z,64.34
2018-09-11T01:15:45.564Z,64.16
2018-09-11T01:16:17.157Z,64.02
2018-09-11T01:16:48.743Z,64.07
2018-09-11T01:17:20.331Z,64.04
2018-09-11T01:17:51.918Z,64.04
2018-09-11T01:18:23.507Z,64.05
2018-09-11T01:18:55.113Z,63.97
2018-09-11T01:19:26.718Z,64.14
2018-09-11T01:19:58.312Z,64.16
2018-09-11T01:20:29.896Z,64.13
2018-09-11T01:21:01.472Z,64.17
2018-09-11T01:21:33.073Z,64.00
2018-09-11T01:22:04.650Z,64.08
2018-09-11T01:22:36.235Z,63.99
2018-09-11T01:23:07.819Z,63.94
2018-09-11T01:23:39.417Z,63.83
2018-09-11T01:24:10.998Z,63.86
2018-09-11T01:24:42.630Z,63.76
2018-09-11T01:25:14.256Z,63.87
2018-09-11T01:25:45.897Z,63.72
2018-09-11T01:26:17.493Z,63.87
2018-09-11T01:26:49.079Z,63.79
2018-09-11T01:27:20.662Z,63.66
2018-09-11T01:27:52.257Z,63.76
2018-09-11T01:28:23.844Z,63.71
2018-09-11T01:28:55.414Z,63.64
2018-09-11T01:29:26.999Z,63.64
2018-09-11T01:29:58.630Z,63.63
2018-09-11T01:30:30.230Z,63.67
2018-09-11T01:31:01.828Z,63.75
2018-09-11T01:31:33.455Z,63.67
2018-09-11T01:32:05.049Z,63.71
2018-09-11T01:32:36.635Z,63.78
2018-09-11T01:33:08.209Z,63.81
2018-09-11T01:33:39.809Z,63.88
2018-09-11T01:34:11.404Z,64.37
2018-09-11T01:34:43.005Z,63.99
2018-09-11T01:35:14.610Z,63.83
2018-09-11T01:35:46.249Z,63.84
2018-09-11T01:36:17.836Z,63.79
2018-09-11T01:36:49.429Z,63.76
2018-09-11T01:37:21.030Z,63.78
2018-09-11T01:37:52.602Z,63.62
2018-09-11T01:38:24.202Z,62.86
2018-09-11T01:38:55.831Z,63.52
2018-09-11T01:39:27.406Z,63.42
2018-09-11T01:39:59.007Z,63.46
2018-09-11T01:40:30.591Z,63.43
2018-09-11T01:41:02.184Z,63.43
2018-09-11T01:41:33.771Z,63.42
2018-09-11T01:42:05.370Z,63.48
2018-09-11T01:42:36.967Z,63.64
2018-09-11T01:43:08.551Z,63.62
2018-09-11T01:43:40.136Z,63.78
2018-09-11T01:44:11.713Z,63.75
2018-09-11T01:44:43.299Z,63.90
2018-09-11T01:45:14.888Z,63.90
2018-09-11T01:46:47.456Z,64.05
2018-09-11T01:47:19.053Z,64.12
2018-09-11T01:47:50.638Z,64.48
2018-09-11T01:48:22.220Z,64.52
2018-09-11T01:48:53.847Z,64.47
2018-09-11T01:49:25.483Z,64.46
2018-09-11T01:49:57.072Z,64.34
2018-09-11T01:50:28.655Z,64.27
2018-09-11T01:51:00.240Z,64.31
2018-09-11T01:51:31.841Z,64.28
2018-09-11T01:52:03.427Z,64.21
2018-09-11T01:52:35.012Z,64.25
2018-09-11T01:53:06.585Z,64.25
2018-09-11T01:53:38.171Z,64.16
2018-09-11T01:54:09.751Z,64.11
2018-09-11T01:54:41.377Z,64.13
2018-09-11T01:55:12.969Z,64.12
2018-09-11T01:55:44.560Z,64.10
2018-09-11T01:56:16.143Z,64.15
2018-09-11T01:56:47.727Z,64.16
2018-09-11T01:57:19.305Z,64.19
2018-09-11T01:57:50.891Z,64.34
2018-09-11T01:58:22.474Z,64.46
2018-09-11T01:58:54.055Z,64.36
2018-09-11T01:59:25.667Z,64.44
2018-09-11T01:59:57.299Z,64.28
2018-09-11T02:00:28.884Z,64.37
2018-09-11T02:01:00.486Z,64.35
2018-09-11T02:01:32.085Z,64.43
2018-09-11T02:02:03.671Z,64.36
2018-09-11T02:02:35.255Z,64.38
2018-09-11T02:03:06.854Z,64.36
2018-09-11T02:03:38.446Z,64.36
2018-09-11T02:04:10.032Z,64.30
2018-09-11T02:04:41.629Z,64.35
2018-09-11T02:05:13.256Z,64.42
2018-09-11T02:05:44.858Z,64.35
2018-09-11T02:06:16.449Z,64.44
2018-09-11T02:06:48.036Z,64.35
2018-09-11T02:07:19.623Z,64.43
2018-09-11T02:07:51.197Z,64.44
2018-09-11T02:08:22.793Z,64.47
2018-09-11T02:08:54.379Z,64.46
2018-09-11T02:09:25.968Z,64.59
2018-09-11T02:09:57.600Z,64.55
2018-09-11T02:10:29.170Z,64.67
2018-09-11T02:11:00.765Z,64.62
2018-09-11T02:11:32.351Z,64.67
2018-09-11T02:12:03.946Z,64.75
2018-09-11T02:12:35.535Z,64.75
2018-09-11T02:13:07.123Z,64.70
2018-09-11T02:13:38.693Z,64.75
2018-09-11T02:14:10.291Z,64.71
2018-09-11T02:14:41.879Z,64.78
2018-09-11T02:15:13.503Z,64.75
2018-09-11T02:15:45.153Z,64.72
2018-09-11T02:16:16.725Z,64.85
2018-09-11T02:16:48.308Z,64.72
2018-09-11T02:17:19.904Z,64.68
2018-09-11T02:17:51.507Z,64.74
2018-09-11T02:18:23.095Z,64.76
2018-09-11T02:18:54.689Z,64.79
2018-09-11T02:19:26.291Z,64.83
2018-09-11T02:19:57.880Z,64.75
2018-09-11T02:20:29.453Z,64.93
2018-09-11T02:21:01.080Z,64.84
2018-09-11T02:21:32.667Z,64.76
2018-09-11T02:22:04.262Z,64.83
2018-09-11T02:22:35.855Z,64.85
2018-09-11T02:23:07.439Z,64.89
2018-09-11T02:23:39.045Z,64.95
2018-09-11T02:24:10.617Z,64.93
2018-09-11T02:24:42.190Z,64.76
2018-09-11T02:25:13.807Z,64.84
2018-09-11T02:25:45.391Z,64.87
2018-09-11T02:26:16.975Z,64.92
2018-09-11T02:26:48.545Z,64.96
2018-09-11T02:27:20.131Z,64.91
2018-09-11T02:27:51.733Z,64.94
2018-09-11T02:28:23.323Z,64.95
2018-09-11T02:28:54.907Z,64.96
2018-09-11T02:29:26.492Z,64.85
2018-09-11T02:29:58.079Z,64.86
2018-09-11T02:30:29.686Z,65.01
2018-09-11T02:31:01.335Z,65.11
2018-09-11T02:31:32.923Z,64.99
2018-09-11T02:32:04.530Z,64.92
2018-09-11T02:32:36.172Z,64.92
2018-09-11T02:33:07.756Z,65.01
2018-09-11T02:33:39.357Z,65.13
2018-09-11T02:34:10.962Z,64.98
2018-09-11T02:34:42.537Z,65.07
2018-09-11T02:35:14.119Z,65.03
2018-09-11T02:35:45.733Z,65.44
2018-09-11T02:36:17.341Z,65.27
2018-09-11T02:36:48.936Z,65.25
2018-09-11T02:37:20.524Z,65.35
2018-09-11T02:37:52.169Z,65.31
2018-09-11T02:38:23.768Z,65.51
2018-09-11T02:38:55.356Z,65.43
2018-09-11T02:39:26.943Z,65.39
2018-09-11T02:39:58.517Z,65.56
2018-09-11T02:40:30.115Z,65.62
2018-09-11T02:41:01.713Z,65.78
2018-09-11T02:41:33.314Z,66.19
2018-09-11T02:42:04.916Z,65.67
2018-09-11T02:42:36.503Z,65.69
2018-09-11T02:43:08.137Z,65.77
2018-09-11T02:43:39.727Z,65.42
2018-09-11T02:44:11.315Z,65.50
2018-09-11T02:44:42.913Z,65.23
2018-09-11T02:45:14.555Z,65.22
2018-09-11T02:45:46.170Z,65.19
2018-09-11T02:46:17.769Z,65.06
2018-09-11T02:46:49.371Z,65.09
2018-09-11T02:47:20.945Z,65.02
2018-09-11T02:47:52.531Z,65.05
2018-09-11T02:48:24.132Z,64.37
2018-09-11T02:48:55.720Z,64.73
2018-09-11T02:49:27.329Z,64.50
2018-09-11T02:49:58.956Z,64.69
2018-09-11T02:50:30.555Z,64.60
2018-09-11T02:51:02.149Z,64.15
2018-09-11T02:51:33.735Z,64.01
2018-09-11T02:52:05.325Z,64.15
2018-09-11T02:52:36.947Z,63.97
2018-09-11T02:53:08.541Z,63.84
2018-09-11T02:53:40.128Z,63.47
2018-09-11T02:54:11.747Z,63.29
2018-09-11T02:54:43.346Z,63.24
2018-09-11T02:55:14.925Z,63.04
2018-09-11T02:55:46.526Z,63.22
2018-09-11T02:56:18.114Z,63.14
2018-09-11T02:56:49.711Z,62.66
2018-09-11T02:57:21.300Z,61.41
2018-09-11T02:57:52.914Z,61.11
2018-09-11T02:58:24.506Z,60.79
2018-09-11T02:58:56.114Z,60.59
2018-09-11T02:59:27.690Z,60.21
2018-09-11T02:59:59.321Z,59.98
2018-09-11T03:00:30.919Z,59.69
2018-09-11T03:01:02.489Z,59.42
2018-09-11T03:01:34.094Z,58.95
2018-09-11T03:02:05.677Z,59.12
2018-09-11T03:02:37.260Z,58.88
2018-09-11T03:03:08.893Z,59.61
2018-09-11T03:03:40.480Z,59.02
2018-09-11T03:04:12.086Z,58.60
2018-09-11T03:04:43.730Z,58.35
2018-09-11T03:05:15.374Z,57.96
2018-09-11T03:05:46.963Z,57.99
2018-09-11T03:06:18.547Z,57.73
2018-09-11T03:06:50.135Z,57.95
2018-09-11T03:07:21.719Z,57.92
2018-09-11T03:07:53.306Z,57.60
2018-09-11T03:08:24.889Z,57.70
2018-09-11T03:09:00.110Z,57.72
2018-09-11T03:09:31.695Z,57.85
2018-09-11T03:10:03.321Z,57.59
2018-09-11T03:10:34.920Z,57.43
2018-09-11T03:11:06.503Z,57.20
2018-09-11T03:11:38.145Z,57.20
2018-09-11T03:12:09.731Z,56.98
2018-09-11T03:12:41.319Z,56.96
2018-09-11T03:13:12.903Z,56.91
2018-09-11T03:13:44.494Z,57.06
2018-09-11T03:14:16.103Z,57.13
2018-09-11T03:14:47.691Z,57.02
2018-09-11T03:15:19.315Z,56.87
2018-09-11T03:15:50.895Z,56.88
2018-09-11T03:16:22.505Z,56.67
2018-09-11T03:16:54.121Z,56.87
2018-09-11T03:17:25.693Z,56.68
2018-09-11T03:17:57.275Z,56.93
2018-09-11T03:18:28.858Z,56.44
2018-09-11T03:19:00.454Z,56.66
2018-09-11T03:19:32.050Z,56.46
2018-09-11T03:20:03.653Z,56.27
2018-09-11T03:20:35.239Z,56.60
2018-09-11T03:21:06.827Z,56.26
2018-09-11T03:21:38.428Z,56.43
2018-09-11T03:22:10.070Z,56.61
2018-09-11T03:22:41.700Z,56.52
2018-09-11T03:23:13.274Z,56.19
2018-09-11T03:23:44.879Z,56.03
2018-09-11T03:24:16.453Z,55.96
2018-09-11T03:24:48.047Z,55.96
2018-09-11T03:25:19.646Z,55.99
2018-09-11T03:25:51.235Z,55.90
2018-09-11T03:26:22.824Z,55.97
2018-09-11T03:26:54.417Z,55.88
2018-09-11T03:27:26.003Z,55.73
2018-09-11T03:27:57.628Z,55.79
2018-09-11T03:28:29.211Z,55.75
2018-09-11T03:29:00.817Z,55.66
2018-09-11T03:29:32.408Z,55.62
2018-09-11T03:30:03.995Z,55.50
2018-09-11T03:30:35.578Z,55.84
2018-09-11T03:31:07.163Z,55.37
2018-09-11T03:31:38.800Z,55.44
2018-09-11T03:32:10.397Z,55.50
2018-09-11T03:32:41.998Z,55.45
2018-09-11T03:33:13.583Z,55.58
2018-09-11T03:33:45.171Z,55.27
2018-09-11T03:34:16.778Z,55.06
2018-09-11T03:34:48.373Z,55.11
2018-09-11T03:35:19.959Z,55.12
2018-09-11T03:35:51.544Z,55.17
2018-09-11T03:36:23.127Z,55.24
2018-09-11T03:36:54.728Z,55.19
2018-09-11T03:37:26.330Z,55.24
2018-09-11T03:37:57.915Z,55.28
2018-09-11T03:38:29.552Z,55.41
2018-09-11T03:39:01.135Z,55.43
2018-09-11T03:39:32.733Z,55.30
2018-09-11T03:40:04.316Z,55.15
2018-09-11T03:40:35.893Z,55.28
2018-09-11T03:41:07.493Z,55.22
2018-09-11T03:41:39.079Z,55.13
2018-09-11T03:42:10.677Z,55.12
2018-09-11T03:42:42.267Z,55.18
2018-09-11T03:43:13.865Z,55.20
2018-09-11T03:43:45.498Z,55.14
2018-09-11T03:44:17.154Z,55.31
2018-09-11T03:44:48.710Z,55.22
2018-09-11T03:45:20.307Z,55.17
2018-09-11T03:45:52.188Z,55.23
2018-09-11T03:46:23.781Z,55.19
2018-09-11T03:46:55.372Z,55.08
2018-09-11T03:47:26.973Z,55.08
2018-09-11T03:47:58.550Z,55.09
2018-09-11T03:48:30.144Z,55.07
2018-09-11T03:49:01.775Z,55.04
2018-09-11T03:49:33.360Z,55.08
2018-09-11T03:50:04.962Z,54.99
2018-09-11T03:50:36.552Z,54.78
2018-09-11T03:51:08.135Z,54.90
2018-09-11T03:51:39.738Z,54.84
2018-09-11T03:52:11.398Z,54.75
2018-09-11T03:52:42.996Z,54.61
2018-09-11T03:53:14.649Z,54.63
2018-09-11T03:53:46.250Z,54.56
2018-09-11T03:54:17.825Z,54.80
2018-09-11T03:54:49.417Z,54.53
2018-09-11T03:55:21.018Z,54.51
2018-09-11T03:55:52.605Z,54.67
2018-09-11T03:56:24.201Z,54.48
2018-09-11T03:56:55.794Z,54.62
2018-09-11T03:57:27.391Z,54.64
2018-09-11T03:57:58.998Z,54.50
2018-09-11T03:58:30.765Z,54.50
2018-09-11T03:59:02.368Z,54.55
2018-09-11T03:59:33.975Z,54.49
2018-09-11T04:00:05.550Z,54.42
2018-09-11T04:00:37.135Z,54.39
2018-09-11T04:01:08.720Z,54.48
2018-09-11T04:01:40.297Z,54.38
2018-09-11T04:02:11.880Z,54.47
2018-09-11T04:02:43.477Z,54.32
2018-09-11T04:03:15.074Z,54.48
2018-09-11T04:03:46.699Z,54.40
2018-09-11T04:04:18.292Z,54.34
2018-09-11T04:04:49.896Z,54.29
2018-09-11T04:05:21.530Z,54.32
2018-09-11T04:05:53.096Z,54.30
2018-09-11T04:06:24.683Z,54.39
2018-09-11T04:06:56.284Z,54.22
2018-09-11T04:07:27.877Z,54.34
2018-09-11T04:07:59.463Z,54.28
2018-09-11T04:08:31.070Z,54.30
2018-09-11T04:09:02.707Z,54.27
2018-09-11T04:09:34.306Z,54.13
2018-09-11T04:10:05.903Z,54.28
2018-09-11T04:10:37.493Z,54.20
2018-09-11T04:11:09.093Z,54.14
2018-09-11T04:11:40.698Z,54.13
2018-09-11T04:12:12.296Z,54.18
2018-09-11T04:12:43.884Z,54.12
2018-09-11T04:13:15.486Z,54.07
2018-09-11T04:13:47.221Z,54.19
2018-09-11T04:14:18.860Z,54.11
2018-09-11T04:14:50.451Z,54.20
2018-09-11T04:15:22.038Z,54.15
2018-09-11T04:15:53.619Z,54.19
2018-09-11T04:16:25.204Z,54.06
2018-09-11T04:16:56.804Z,54.28
2018-09-11T04:17:28.431Z,54.04
2018-09-11T04:18:00.001Z,54.03
2018-09-11T04:18:31.595Z,54.00
2018-09-11T04:19:03.171Z,54.08
2018-09-11T04:19:34.759Z,54.22
2018-09-11T04:20:06.353Z,53.94
2018-09-11T04:20:37.943Z,53.95
2018-09-11T04:21:09.568Z,53.92
2018-09-11T04:21:41.159Z,53.92
2018-09-11T04:22:12.761Z,53.89
2018-09-11T04:22:44.357Z,54.02
2018-09-11T04:23:15.957Z,53.90
2018-09-11T04:23:47.557Z,53.96
2018-09-11T04:24:19.126Z,53.92
2018-09-11T04:24:50.712Z,53.97
2018-09-11T04:25:22.313Z,54.16
2018-09-11T04:25:53.917Z,53.97
2018-09-11T04:26:25.558Z,53.97
2018-09-11T04:26:57.149Z,53.95
2018-09-11T04:27:28.741Z,53.95
2018-09-11T04:28:00.337Z,54.14
2018-09-11T04:28:31.923Z,53.96
2018-09-11T04:29:03.512Z,53.97
2018-09-11T04:29:35.096Z,53.99
2018-09-11T04:30:06.679Z,54.02
2018-09-11T04:30:38.272Z,54.07
2018-09-11T04:31:09.855Z,54.01
2018-09-11T04:31:41.480Z,54.02
2018-09-11T04:32:13.077Z,54.01
2018-09-11T04:32:44.667Z,54.08
2018-09-11T04:33:16.261Z,54.05
2018-09-11T04:33:47.866Z,54.05
2018-09-11T04:34:19.465Z,53.98
2018-09-11T04:34:51.063Z,54.03
2018-09-11T04:35:22.650Z,54.08
2018-09-11T04:35:54.254Z,54.02
2018-09-11T04:36:25.895Z,54.03
2018-09-11T04:36:57.530Z,54.02
2018-09-11T04:37:29.115Z,54.05
2018-09-11T04:38:00.700Z,54.08
2018-09-11T04:38:32.298Z,54.14
2018-09-11T04:39:03.889Z,54.07
2018-09-11T04:39:35.481Z,54.08
2018-09-11T04:40:07.080Z,54.09
2018-09-11T04:40:38.667Z,54.11
2018-09-11T04:41:10.241Z,54.09
2018-09-11T04:41:41.823Z,54.09
2018-09-11T04:42:13.439Z,54.12
2018-09-11T04:42:45.010Z,54.14
2018-09-11T04:43:16.668Z,54.15
2018-09-11T04:43:48.269Z,54.17
2018-09-11T04:44:19.860Z,54.09
2018-09-11T04:44:51.453Z,54.17
2018-09-11T04:45:23.044Z,54.22
2018-09-11T04:45:54.641Z,54.17
2018-09-11T04:46:26.220Z,54.14
2018-09-11T04:46:57.832Z,54.13
2018-09-11T04:47:29.473Z,54.13
2018-09-11T04:48:01.050Z,54.10
2018-09-11T04:48:32.675Z,54.08
2018-09-11T04:49:04.260Z,54.12
2018-09-11T04:49:35.848Z,54.10
2018-09-11T04:50:07.449Z,54.16
2018-09-11T04:50:39.057Z,54.21
2018-09-11T04:51:10.653Z,54.17
2018-09-11T04:51:42.244Z,54.26
2018-09-11T04:52:13.827Z,54.21
2018-09-11T04:52:45.451Z,54.19
2018-09-11T04:53:17.045Z,54.11
2018-09-11T04:53:48.672Z,54.16
2018-09-11T04:54:20.255Z,54.18
2018-09-11T04:54:51.829Z,54.15
2018-09-11T04:55:23.425Z,54.17
2018-09-11T04:55:55.086Z,54.24
2018-09-11T04:56:26.626Z,54.12
2018-09-11T04:56:58.222Z,54.20
2018-09-11T04:57:29.808Z,54.23
2018-09-11T04:58:01.396Z,54.21
2018-09-11T04:58:33.023Z,54.23
2018-09-11T04:59:04.656Z,54.26
2018-09-11T04:59:36.247Z,54.25
2018-09-11T05:00:07.818Z,54.28
2018-09-11T05:00:39.418Z,54.25
2018-09-11T05:01:11.057Z,54.19
2018-09-11T05:01:42.640Z,54.29
2018-09-11T05:02:14.226Z,54.24
2018-09-11T05:02:45.807Z,54.25
2018-09-11T05:03:17.378Z,54.23
2018-09-11T05:03:48.960Z,54.27
2018-09-11T05:04:21.336Z,54.30
2018-09-11T05:04:52.942Z,54.35
2018-09-11T05:05:24.527Z,54.37
2018-09-11T05:05:56.126Z,54.37
2018-09-11T05:06:27.760Z,54.35
2018-09-11T05:06:59.368Z,54.37
2018-09-11T05:07:30.942Z,54.27
2018-09-11T05:08:02.537Z,54.31
2018-09-11T05:08:34.162Z,54.30
2018-09-11T05:09:05.805Z,54.28
2018-09-11T05:09:37.399Z,54.31
2018-09-11T05:10:09.002Z,54.27
2018-09-11T05:10:40.602Z,54.29
2018-09-11T05:11:12.187Z,54.28
2018-09-11T05:11:43.780Z,54.26
2018-09-11T05:12:15.367Z,54.29
2018-09-11T05:12:46.977Z,54.17
2018-09-11T05:13:18.557Z,54.24
2018-09-11T05:13:50.154Z,54.16
2018-09-11T05:14:21.774Z,54.15
2018-09-11T05:14:53.365Z,54.09
2018-09-11T05:15:24.947Z,54.17
2018-09-11T05:15:56.521Z,54.12
2018-09-11T05:16:28.121Z,54.03
2018-09-11T05:16:59.757Z,54.00
2018-09-11T05:17:31.333Z,54.05
2018-09-11T05:18:02.920Z,54.00
2018-09-11T05:18:34.503Z,54.01
2018-09-11T05:19:06.162Z,54.02
2018-09-11T05:19:37.703Z,53.98
2018-09-11T05:20:09.288Z,54.00
2018-09-11T05:20:40.896Z,54.00
2018-09-11T05:21:12.497Z,53.96
2018-09-11T05:21:44.097Z,53.94
2018-09-11T05:22:15.742Z,54.00
2018-09-11T05:22:47.341Z,54.03
2018-09-11T05:23:18.928Z,53.93
2018-09-11T05:23:50.532Z,54.02
2018-09-11T05:24:22.137Z,53.94
2018-09-11T05:24:53.743Z,54.01
2018-09-11T05:25:25.339Z,54.03
2018-09-11T05:25:56.975Z,54.10
2018-09-11T05:26:28.563Z,54.02
2018-09-11T05:27:00.151Z,54.06
2018-09-11T05:27:31.804Z,54.07
2018-09-11T05:28:03.426Z,54.12
2018-09-11T05:28:35.030Z,54.01
2018-09-11T05:29:06.616Z,54.03
2018-09-11T05:29:38.213Z,54.09
2018-09-11T05:30:09.790Z,54.06
2018-09-11T05:30:41.385Z,54.04
2018-09-11T05:31:12.971Z,54.17
2018-09-11T05:31:44.573Z,54.15
2018-09-11T05:32:16.174Z,54.04
2018-09-11T05:32:47.933Z,54.10
2018-09-11T05:33:19.505Z,53.99
2018-09-11T05:33:51.092Z,54.02
2018-09-11T05:34:22.685Z,53.88
2018-09-11T05:34:54.271Z,53.86
2018-09-11T05:35:25.846Z,53.85
2018-09-11T05:35:57.432Z,53.77
2018-09-11T05:36:29.023Z,53.77
2018-09-11T05:37:00.597Z,53.79
2018-09-11T05:37:32.185Z,53.69
2018-09-11T05:38:03.825Z,53.80
2018-09-11T05:38:35.401Z,53.89
2018-09-11T05:39:07.085Z,53.75
2018-09-11T05:39:38.604Z,53.74
2018-09-11T05:40:10.220Z,53.75
2018-09-11T05:40:41.808Z,53.76
2018-09-11T05:41:13.394Z,53.72
2018-09-11T05:41:44.983Z,53.71
2018-09-11T05:42:16.568Z,53.61
2018-09-11T05:42:48.209Z,53.65
2018-09-11T05:43:19.810Z,53.79
2018-09-11T05:43:51.435Z,53.76
2018-09-11T05:44:23.024Z,53.76
2018-09-11T05:44:54.611Z,53.75
2018-09-11T05:45:26.217Z,53.72
2018-09-11T05:45:57.799Z,53.74
2018-09-11T05:46:29.405Z,53.79
2018-09-11T05:47:01.020Z,53.83
2018-09-11T05:47:32.655Z,53.82
2018-09-11T05:48:04.239Z,53.82
2018-09-11T05:48:35.838Z,53.86
2018-09-11T05:49:07.424Z,53.83
2018-09-11T05:49:39.085Z,53.85
2018-09-11T05:50:10.730Z,53.85
2018-09-11T05:50:42.342Z,53.76
2018-09-11T05:51:13.923Z,53.76
2018-09-11T05:51:45.529Z,53.66
2018-09-11T05:52:17.134Z,53.77
2018-09-11T05:52:48.740Z,53.78
2018-09-11T05:53:20.328Z,53.81
2018-09-11T05:53:51.924Z,53.82
2018-09-11T05:54:23.516Z,53.90
2018-09-11T05:54:55.113Z,53.87
2018-09-11T05:55:26.748Z,53.92
2018-09-11T05:55:58.341Z,53.92
2018-09-11T05:56:29.942Z,53.89
2018-09-11T05:57:01.539Z,53.99
2018-09-11T05:57:33.109Z,53.93
2018-09-11T05:58:04.695Z,53.92
2018-09-11T05:58:36.289Z,53.99
2018-09-11T05:59:07.885Z,53.93
2018-09-11T05:59:39.472Z,53.96
2018-09-11T06:00:11.106Z,53.94
2018-09-11T06:00:42.691Z,53.99
2018-09-11T06:01:14.285Z,54.01
2018-09-11T06:01:45.881Z,54.07
2018-09-11T06:02:17.478Z,54.08
2018-09-11T06:02:49.063Z,54.10
2018-09-11T06:03:20.646Z,54.08
2018-09-11T06:03:52.235Z,54.12
2018-09-11T06:04:23.834Z,54.18
2018-09-11T06:04:55.424Z,54.23
2018-09-11T06:05:27.131Z,54.27
2018-09-11T06:05:58.672Z,54.24
2018-09-11T06:06:30.259Z,54.22
2018-09-11T06:07:01.840Z,54.24
2018-09-11T06:07:33.436Z,54.23
2018-09-11T06:08:05.024Z,54.27
2018-09-11T06:08:36.607Z,54.18
2018-09-11T06:09:08.178Z,54.27
2018-09-11T06:09:39.777Z,54.18
2018-09-11T06:10:11.408Z,54.17
2018-09-11T06:10:43.062Z,54.15
2018-09-11T06:11:14.647Z,54.13
2018-09-11T06:11:46.245Z,54.12
2018-09-11T06:12:17.942Z,54.14
2018-09-11T06:12:49.537Z,54.21
2018-09-11T06:13:21.122Z,54.18
2018-09-11T06:13:52.704Z,54.09
2018-09-11T06:14:24.341Z,54.17
2018-09-11T06:14:55.917Z,54.13
2018-09-11T06:15:27.549Z,54.17
2018-09-11T06:15:59.150Z,54.23
2018-09-11T06:16:30.748Z,54.29
2018-09-11T06:17:02.378Z,54.23
2018-09-11T06:17:33.949Z,54.24
2018-09-11T06:18:05.557Z,54.33
2018-09-11T06:18:37.157Z,54.32
2018-09-11T06:19:08.757Z,54.28
2018-09-11T06:19:40.405Z,54.25
2018-09-11T06:20:12.000Z,54.23
2018-09-11T06:20:43.594Z,54.22
2018-09-11T06:21:15.169Z,54.26
2018-09-11T06:21:46.765Z,54.26
2018-09-11T06:22:18.356Z,54.26
2018-09-11T06:22:49.993Z,54.25
2018-09-11T06:23:21.589Z,54.30
2018-09-11T06:23:53.175Z,54.34
2018-09-11T06:24:24.769Z,54.35
2018-09-11T06:24:56.356Z,54.39
2018-09-11T06:25:27.977Z,54.30
2018-09-11T06:25:59.577Z,54.25
2018-09-11T06:26:31.171Z,54.27
2018-09-11T06:27:02.764Z,54.27
2018-09-11T06:27:34.361Z,54.21
2018-09-11T06:28:05.991Z,54.28
2018-09-11T06:28:37.577Z,54.25
2018-09-11T06:29:09.201Z,54.30
2018-09-11T06:29:40.809Z,54.28
2018-09-11T06:30:12.395Z,54.24
2018-09-11T06:30:43.979Z,54.25
2018-09-11T06:31:15.567Z,54.27
2018-09-11T06:31:47.154Z,54.31
2018-09-11T06:32:18.730Z,54.33
2018-09-11T06:32:50.370Z,54.27
2018-09-11T06:33:21.969Z,54.27
2018-09-11T06:33:53.569Z,54.22
2018-09-11T06:34:25.182Z,54.31
2018-09-11T06:34:56.786Z,54.24
2018-09-11T06:35:28.460Z,54.23
2018-09-11T06:36:00.071Z,54.25
2018-09-11T06:36:31.628Z,54.25
2018-09-11T06:37:03.236Z,54.21
2018-09-11T06:37:34.813Z,54.16
2018-09-11T06:38:06.400Z,54.23
2018-09-11T06:38:38.006Z,54.34
2018-09-11T06:39:09.595Z,54.28
2018-09-11T06:39:41.190Z,54.11
2018-09-11T06:40:12.775Z,54.18
2018-09-11T06:40:44.351Z,54.28
2018-09-11T06:41:16.007Z,54.19
2018-09-11T06:41:47.601Z,54.32
2018-09-11T06:42:19.187Z,54.26
2018-09-11T06:42:50.776Z,54.14
2018-09-11T06:43:22.349Z,54.19
2018-09-11T06:43:53.925Z,54.20
2018-09-11T06:44:25.511Z,54.16
2018-09-11T06:44:57.149Z,54.18
2018-09-11T06:45:28.745Z,54.25
2018-09-11T06:46:00.333Z,54.41
2018-09-11T06:46:31.934Z,54.49
2018-09-11T06:47:03.580Z,54.23
2018-09-11T06:47:35.150Z,54.18
2018-09-11T06:48:06.748Z,53.96